createdAt,value
2018-12-07T00:00:05.691Z,10.00
2018-12-07T00:01:05.179Z,10.00
2018-12-07T00:02:05.364Z,10.00
2018-12-07T00:03:05.829Z,10.00
2018-12-07T00:04:05.451Z,10.00
2018-12-07T00:05:06.076Z,10.00
2018-12-07T00:06:05.444Z,10.00
2018-12-07T00:07:06.078Z,10.00
2018-12-07T00:08:05.289Z,10.00
2018-12-07T00:09:05.121Z,10.00
2018-12-07T00:10:05.703Z,10.06
2018-12-07T00:11:05.757Z,10.06
2018-12-07T00:12:05.948Z,10.06
2018-12-07T00:13:05.820Z,10.06
2018-12-07T00:14:06.017Z,10.06
2018-12-07T00:15:05.496Z,10.06
2018-12-07T00:16:05.134Z,10.06
2018-12-07T00:17:05.686Z,10.06
2018-12-07T00:18:05.769Z,10.06
2018-12-07T00:19:06.073Z,10.06
2018-12-07T00:20:05.125Z,10.06
2018-12-07T00:21:05.924Z,10.06
2018-12-07T00:22:05.700Z,10.06
2018-12-07T00:23:05.752Z,10.06
2018-12-07T00:24:05.207Z,10.06
2018-12-07T00:25:05.522Z,10.12
2018-12-07T00:26:05.873Z,10.12
2018-12-07T00:27:05.922Z,10.12
2018-12-07T00:28:05.919Z,10.12
2018-12-07T00:29:05.266Z,10.12
2018-12-07T00:30:05.708Z,10.12
2018-12-07T00:31:05.587Z,10.12
2018-12-07T00:32:05.856Z,10.12
2018-12-07T00:33:05.449Z,10.12
2018-12-07T00:34:05.372Z,10.19
2018-12-07T00:35:05.437Z,10.19
2018-12-07T00:36:05.530Z,10.19
2018-12-07T00:37:06.084Z,10.19
2018-12-07T00:38:05.211Z,10.19
2018-12-07T00:39:05.836Z,10.19
2018-12-07T00:40:05.940Z,10.19
2018-12-07T00:41:06.076Z,10.19
2018-12-07T00:42:05.533Z,10.25
2018-12-07T00:43:05.531Z,10.25
2018-12-07T00:44:05.765Z,10.25
2018-12-07T00:45:05.340Z,10.25
2018-12-07T00:46:05.429Z,10.25
2018-12-07T00:47:05.694Z,10.25
2018-12-07T00:48:05.834Z,10.25
2018-12-07T00:49:05.979Z,10.25
2018-12-07T00:50:05.532Z,10.25
2018-12-07T00:51:05.585Z,10.31
2018-12-07T00:52:05.590Z,10.25
2018-12-07T00:53:05.926Z,10.31
2018-12-07T00:54:06.210Z,10.31
2018-12-07T00:55:06.007Z,10.31
2018-12-07T00:56:05.316Z,10.31
2018-12-07T00:57:05.192Z,10.31
2018-12-07T00:58:05.604Z,10.31
2018-12-07T00:59:05.988Z,10.31
2018-12-07T01:00:05.532Z,10.38
2018-12-07T01:01:05.975Z,10.31
2018-12-07T01:02:05.550Z,10.31
2018-12-07T01:03:05.506Z,10.31
2018-12-07T01:04:05.207Z,10.31
2018-12-07T01:05:05.767Z,10.31
2018-12-07T01:06:05.775Z,10.31
2018-12-07T01:07:05.865Z,10.31
2018-12-07T01:08:06.022Z,10.38
2018-12-07T01:09:05.360Z,10.38
2018-12-07T01:10:05.136Z,10.38
2018-12-07T01:11:05.104Z,10.38
2018-12-07T01:12:05.291Z,10.38
2018-12-07T01:13:05.117Z,10.38
2018-12-07T01:14:05.206Z,10.38
2018-12-07T01:15:05.178Z,10.38
2018-12-07T01:16:05.672Z,10.38
2018-12-07T01:17:06.057Z,10.38
2018-12-07T01:18:05.783Z,10.38
2018-12-07T01:19:06.317Z,10.38
2018-12-07T01:20:05.859Z,10.38
2018-12-07T01:21:05.305Z,10.38
2018-12-07T01:22:05.526Z,10.38
2018-12-07T01:23:05.603Z,10.38
2018-12-07T01:24:05.858Z,10.38
2018-12-07T01:25:05.448Z,10.38
2018-12-07T01:26:05.380Z,10.38
2018-12-07T01:27:05.418Z,10.38
2018-12-07T01:28:05.764Z,10.38
2018-12-07T01:29:05.998Z,10.38
2018-12-07T01:30:06.017Z,10.38
2018-12-07T01:31:06.064Z,10.38
2018-12-07T01:32:05.302Z,10.44
2018-12-07T01:33:05.276Z,10.44
2018-12-07T01:34:05.915Z,10.44
2018-12-07T01:35:05.108Z,10.44
2018-12-07T01:36:05.941Z,10.44
2018-12-07T01:37:05.202Z,10.50
2018-12-07T01:38:05.298Z,10.50
2018-12-07T01:39:05.449Z,10.50
2018-12-07T01:40:05.573Z,10.50
2018-12-07T01:41:05.759Z,10.50
2018-12-07T01:42:05.979Z,10.50
2018-12-07T01:43:05.445Z,10.50
2018-12-07T01:44:05.915Z,10.50
2018-12-07T01:45:06.097Z,10.56
2018-12-07T01:46:05.601Z,10.50
2018-12-07T01:47:05.525Z,10.50
2018-12-07T01:48:05.176Z,10.50
2018-12-07T01:49:05.359Z,10.56
2018-12-07T01:50:05.677Z,10.56
2018-12-07T01:51:05.531Z,10.56
2018-12-07T01:52:05.576Z,10.56
2018-12-07T01:53:05.217Z,10.56
2018-12-07T01:54:05.209Z,10.56
2018-12-07T01:55:05.361Z,10.56
2018-12-07T01:56:05.177Z,10.56
2018-12-07T01:57:05.291Z,10.62
2018-12-07T01:58:05.342Z,10.62
2018-12-07T01:59:05.476Z,10.62
2018-12-07T02:00:05.765Z,10.62
2018-12-07T02:01:05.377Z,10.62
2018-12-07T02:02:05.431Z,10.69
2018-12-07T02:03:05.549Z,10.69
2018-12-07T02:04:05.834Z,10.69
2018-12-07T02:05:05.212Z,10.69
2018-12-07T02:06:05.815Z,10.69
2018-12-07T02:07:05.929Z,10.69
2018-12-07T02:08:05.515Z,10.69
2018-12-07T02:09:05.993Z,10.69
2018-12-07T02:10:05.190Z,10.69
2018-12-07T02:11:05.843Z,10.69
2018-12-07T02:12:05.359Z,10.75
2018-12-07T02:13:05.523Z,10.75
2018-12-07T02:14:05.680Z,10.75
2018-12-07T02:15:05.317Z,10.75
2018-12-07T02:16:05.503Z,10.75
2018-12-07T02:17:06.002Z,10.75
2018-12-07T02:18:05.697Z,10.75
2018-12-07T02:19:05.754Z,10.75
2018-12-07T02:20:05.043Z,10.81
2018-12-07T02:21:05.399Z,10.81
2018-12-07T02:22:05.277Z,10.81
2018-12-07T02:23:05.797Z,10.81
2018-12-07T02:24:05.830Z,10.81
2018-12-07T02:25:05.212Z,10.81
2018-12-07T02:26:05.772Z,10.81
2018-12-07T02:27:05.935Z,10.81
2018-12-07T02:28:05.031Z,10.88
2018-12-07T02:29:05.788Z,10.81
2018-12-07T02:30:05.743Z,10.81
2018-12-07T02:31:05.935Z,10.88
2018-12-07T02:32:05.821Z,10.88
2018-12-07T02:33:05.438Z,10.88
2018-12-07T02:34:05.857Z,10.88
2018-12-07T02:35:05.768Z,10.88
2018-12-07T02:36:05.659Z,10.88
2018-12-07T02:37:06.011Z,10.88
2018-12-07T02:38:05.844Z,10.88
2018-12-07T02:39:05.852Z,10.88
2018-12-07T02:40:06.088Z,10.88
2018-12-07T02:41:05.375Z,10.88
2018-12-07T02:42:05.437Z,10.88
2018-12-07T02:43:05.770Z,10.94
2018-12-07T02:44:05.926Z,10.94
2018-12-07T02:45:05.933Z,10.94
2018-12-07T02:46:05.614Z,10.94
2018-12-07T02:47:05.455Z,10.94
2018-12-07T02:48:05.590Z,10.94
2018-12-07T02:49:05.125Z,10.94
2018-12-07T02:50:05.171Z,10.94
2018-12-07T02:51:05.284Z,10.94
2018-12-07T02:52:05.365Z,11.00
2018-12-07T02:53:05.942Z,10.94
2018-12-07T02:54:06.080Z,11.00
2018-12-07T02:55:05.387Z,10.94
2018-12-07T02:56:05.995Z,11.00
2018-12-07T02:57:05.559Z,11.00
2018-12-07T02:58:05.846Z,11.00
2018-12-07T02:59:05.448Z,11.00
2018-12-07T03:00:05.333Z,11.00
2018-12-07T03:01:06.015Z,11.00
2018-12-07T03:02:05.673Z,11.00
2018-12-07T03:03:05.199Z,11.00
2018-12-07T03:04:06.575Z,11.00
2018-12-07T03:05:05.932Z,11.00
2018-12-07T03:07:05.946Z,11.00
2018-12-07T03:08:05.542Z,11.00
2018-12-07T03:09:05.781Z,11.00
2018-12-07T03:10:05.179Z,11.06
2018-12-07T03:11:05.768Z,11.06
2018-12-07T03:12:05.359Z,11.06
2018-12-07T03:13:05.539Z,11.06
2018-12-07T03:14:05.102Z,11.06
2018-12-07T03:15:05.685Z,11.06
2018-12-07T03:16:05.670Z,11.06
2018-12-07T03:17:06.667Z,11.06
2018-12-07T03:18:06.076Z,11.06
2018-12-07T03:19:05.099Z,11.06
2018-12-07T03:20:05.505Z,11.06
2018-12-07T03:21:05.605Z,11.06
2018-12-07T03:22:05.762Z,11.06
2018-12-07T03:23:05.766Z,11.06
2018-12-07T03:24:05.282Z,11.06
2018-12-07T03:25:05.223Z,11.06
2018-12-07T03:26:05.898Z,11.06
2018-12-07T03:27:05.997Z,11.12
2018-12-07T03:28:05.431Z,11.12
2018-12-07T03:29:05.746Z,11.12
2018-12-07T03:30:05.130Z,11.12
2018-12-07T03:31:05.295Z,11.12
2018-12-07T03:32:05.756Z,11.06
2018-12-07T03:33:05.929Z,11.06
2018-12-07T03:34:05.975Z,11.06
2018-12-07T03:35:05.199Z,11.12
2018-12-07T03:36:05.684Z,11.06
2018-12-07T03:37:05.683Z,11.12
2018-12-07T03:38:05.116Z,11.12
2018-12-07T03:39:05.386Z,11.12
2018-12-07T03:40:05.370Z,11.12
2018-12-07T03:41:05.521Z,11.12
2018-12-07T03:42:05.116Z,11.12
2018-12-07T03:43:05.203Z,11.12
2018-12-07T03:44:05.207Z,11.19
2018-12-07T03:45:05.275Z,11.19
2018-12-07T03:46:05.823Z,11.19
2018-12-07T03:47:05.365Z,11.19
2018-12-07T03:48:05.763Z,11.19
2018-12-07T03:49:05.046Z,11.19
2018-12-07T03:50:05.541Z,11.19
2018-12-07T03:51:05.776Z,11.19
2018-12-07T03:52:05.373Z,11.19
2018-12-07T03:53:05.574Z,11.19
2018-12-07T03:54:05.674Z,11.19
2018-12-07T03:55:05.866Z,11.19
2018-12-07T03:56:05.471Z,11.19
2018-12-07T03:57:05.511Z,11.19
2018-12-07T03:58:05.683Z,11.19
2018-12-07T03:59:05.797Z,11.19
2018-12-07T04:00:06.090Z,11.19
2018-12-07T04:01:05.374Z,11.25
2018-12-07T04:02:05.943Z,11.19
2018-12-07T04:03:05.230Z,11.25
2018-12-07T04:04:05.374Z,11.25
2018-12-07T04:05:05.472Z,11.25
2018-12-07T04:06:05.425Z,11.19
2018-12-07T04:07:05.464Z,11.19
2018-12-07T04:08:06.002Z,11.19
2018-12-07T04:09:05.155Z,11.25
2018-12-07T04:10:05.538Z,11.25
2018-12-07T04:11:05.628Z,11.25
2018-12-07T04:12:05.692Z,11.19
2018-12-07T04:13:05.302Z,11.19
2018-12-07T04:14:05.845Z,11.19
2018-12-07T04:15:05.648Z,11.19
2018-12-07T04:16:05.692Z,11.19
2018-12-07T04:17:05.633Z,11.19
2018-12-07T04:18:05.140Z,11.19
2018-12-07T04:19:05.216Z,11.19
2018-12-07T04:20:05.531Z,11.19
2018-12-07T04:21:05.719Z,11.19
2018-12-07T04:22:05.194Z,11.19
2018-12-07T04:23:06.188Z,11.25
2018-12-07T04:24:05.683Z,11.25
2018-12-07T04:25:05.226Z,11.25
2018-12-07T04:26:05.604Z,11.25
2018-12-07T04:27:05.806Z,11.25
2018-12-07T04:28:05.871Z,11.25
2018-12-07T04:29:05.781Z,11.25
2018-12-07T04:30:05.112Z,11.25
2018-12-07T04:31:05.529Z,11.25
2018-12-07T04:32:05.713Z,11.25
2018-12-07T04:33:05.688Z,11.25
2018-12-07T04:34:06.268Z,11.25
2018-12-07T04:35:05.393Z,11.25
2018-12-07T04:36:07.422Z,11.25
2018-12-07T04:37:05.291Z,11.25
2018-12-07T04:38:05.859Z,11.25
2018-12-07T04:39:05.793Z,11.25
2018-12-07T04:40:05.990Z,11.25
2018-12-07T04:41:05.173Z,11.31
2018-12-07T04:42:05.440Z,11.31
2018-12-07T04:43:05.542Z,11.31
2018-12-07T04:44:05.544Z,11.25
2018-12-07T04:45:05.867Z,11.25
2018-12-07T04:46:05.919Z,11.31
2018-12-07T04:47:05.110Z,11.31
2018-12-07T04:48:05.429Z,11.31
2018-12-07T04:49:05.618Z,11.31
2018-12-07T04:50:05.607Z,11.31
2018-12-07T04:51:05.203Z,11.31
2018-12-07T04:52:05.833Z,11.31
2018-12-07T04:53:05.836Z,11.38
2018-12-07T04:54:05.141Z,11.31
2018-12-07T04:55:05.286Z,11.31
2018-12-07T04:56:05.998Z,11.31
2018-12-07T04:57:05.458Z,11.31
2018-12-07T04:58:05.461Z,11.31
2018-12-07T04:59:05.687Z,11.31
2018-12-07T05:00:05.121Z,11.31
2018-12-07T05:01:05.778Z,11.31
2018-12-07T05:02:05.931Z,11.31
2018-12-07T05:03:05.123Z,11.31
2018-12-07T05:04:05.691Z,11.31
2018-12-07T05:05:05.924Z,11.31
2018-12-07T05:06:05.349Z,11.38
2018-12-07T05:07:05.768Z,11.38
2018-12-07T05:08:05.257Z,11.38
2018-12-07T05:09:05.686Z,11.38
2018-12-07T05:10:05.145Z,11.38
2018-12-07T05:11:06.349Z,11.44
2018-12-07T05:12:05.684Z,11.38
2018-12-07T05:13:05.765Z,11.38
2018-12-07T05:14:05.827Z,11.44
2018-12-07T05:15:05.935Z,11.44
2018-12-07T05:16:05.910Z,11.44
2018-12-07T05:17:05.172Z,11.38
2018-12-07T05:18:05.440Z,11.44
2018-12-07T05:19:05.447Z,11.38
2018-12-07T05:20:06.014Z,11.38
2018-12-07T05:21:05.756Z,11.38
2018-12-07T05:22:05.104Z,11.38
2018-12-07T05:23:05.788Z,11.38
2018-12-07T05:24:05.914Z,11.38
2018-12-07T05:25:06.374Z,11.38
2018-12-07T05:26:05.682Z,11.38
2018-12-07T05:27:05.703Z,11.38
2018-12-07T05:28:05.036Z,11.38
2018-12-07T05:29:05.876Z,11.38
2018-12-07T05:30:05.768Z,11.38
2018-12-07T05:31:06.007Z,11.38
2018-12-07T05:32:05.677Z,11.38
2018-12-07T05:33:05.214Z,11.38
2018-12-07T05:34:05.340Z,11.38
2018-12-07T05:35:05.842Z,11.38
2018-12-07T05:36:05.433Z,11.38
2018-12-07T05:37:05.508Z,11.38
2018-12-07T05:38:05.687Z,11.44
2018-12-07T05:39:05.461Z,11.38
2018-12-07T05:40:05.430Z,11.38
2018-12-07T05:41:05.562Z,11.44
2018-12-07T05:42:05.767Z,11.44
2018-12-07T05:43:05.849Z,11.44
2018-12-07T05:44:05.915Z,11.44
2018-12-07T05:45:05.988Z,11.44
2018-12-07T05:46:05.196Z,11.44
2018-12-07T05:47:05.531Z,11.44
2018-12-07T05:48:05.902Z,11.44
2018-12-07T05:49:05.429Z,11.44
2018-12-07T05:50:05.675Z,11.44
2018-12-07T05:51:05.666Z,11.44
2018-12-07T05:52:06.070Z,11.44
2018-12-07T05:53:05.220Z,11.44
2018-12-07T05:54:05.352Z,11.44
2018-12-07T05:55:05.929Z,11.44
2018-12-07T05:56:05.607Z,11.44
2018-12-07T05:57:05.760Z,11.44
2018-12-07T05:58:05.351Z,11.50
2018-12-07T05:59:06.003Z,11.50
2018-12-07T06:00:05.106Z,11.50
2018-12-07T06:01:05.856Z,11.50
2018-12-07T06:02:05.196Z,11.50
2018-12-07T06:03:05.758Z,11.44
2018-12-07T06:04:05.378Z,11.44
2018-12-07T06:05:06.834Z,11.44
2018-12-07T06:06:10.398Z,11.50
2018-12-07T06:07:06.076Z,11.50
2018-12-07T06:08:05.608Z,11.50
2018-12-07T06:09:05.988Z,11.50
2018-12-07T06:10:05.152Z,11.50
2018-12-07T06:11:05.289Z,11.50
2018-12-07T06:12:05.384Z,11.50
2018-12-07T06:13:05.441Z,11.50
2018-12-07T06:14:05.920Z,11.50
2018-12-07T06:15:05.183Z,11.50
2018-12-07T06:16:05.941Z,11.50
2018-12-07T06:17:05.976Z,11.50
2018-12-07T06:18:05.858Z,11.50
2018-12-07T06:19:05.864Z,11.50
2018-12-07T06:20:06.007Z,11.50
2018-12-07T06:21:06.500Z,11.50
2018-12-07T06:22:05.761Z,11.50
2018-12-07T06:23:05.300Z,11.50
2018-12-07T06:24:05.552Z,11.50
2018-12-07T06:25:05.505Z,11.50
2018-12-07T06:26:05.766Z,11.50
2018-12-07T06:27:05.372Z,11.50
2018-12-07T06:28:05.376Z,11.50
2018-12-07T06:29:05.748Z,11.50
2018-12-07T06:30:05.444Z,11.50
2018-12-07T06:31:05.679Z,11.50
2018-12-07T06:32:05.050Z,11.50
2018-12-07T06:33:05.684Z,11.50
2018-12-07T06:34:05.673Z,11.50
2018-12-07T06:35:05.459Z,11.50
2018-12-07T06:36:05.460Z,11.50
2018-12-07T06:37:05.595Z,11.50
2018-12-07T06:38:05.908Z,11.50
2018-12-07T06:39:06.005Z,11.50
2018-12-07T06:40:05.188Z,11.50
2018-12-07T06:41:05.282Z,11.50
2018-12-07T06:42:05.829Z,11.50
2018-12-07T06:43:05.995Z,11.50
2018-12-07T06:44:06.017Z,11.50
2018-12-07T06:45:05.525Z,11.56
2018-12-07T06:46:06.160Z,11.50
2018-12-07T06:47:05.040Z,11.50
2018-12-07T06:48:05.223Z,11.50
2018-12-07T06:49:05.613Z,11.50
2018-12-07T06:50:05.741Z,11.50
2018-12-07T06:51:05.116Z,11.50
2018-12-07T06:52:05.513Z,11.50
2018-12-07T06:53:05.495Z,11.50
2018-12-07T06:54:05.847Z,11.50
2018-12-07T06:55:05.125Z,11.50
2018-12-07T06:56:05.668Z,11.50
2018-12-07T06:57:05.038Z,11.50
2018-12-07T06:58:05.668Z,11.50
2018-12-07T06:59:05.110Z,11.50
2018-12-07T07:00:05.611Z,11.50
2018-12-07T07:01:05.887Z,11.50
2018-12-07T07:02:06.163Z,11.56
2018-12-07T07:03:05.096Z,11.56
2018-12-07T07:04:05.503Z,11.50
2018-12-07T07:05:05.674Z,11.50
2018-12-07T07:06:05.975Z,11.50
2018-12-07T07:07:05.518Z,11.50
2018-12-07T07:08:05.918Z,11.56
2018-12-07T07:09:05.929Z,11.56
2018-12-07T07:10:05.360Z,11.56
2018-12-07T07:11:05.430Z,11.56
2018-12-07T07:12:05.663Z,11.56
2018-12-07T07:13:05.873Z,11.56
2018-12-07T07:14:05.751Z,11.56
2018-12-07T07:15:05.928Z,11.56
2018-12-07T07:16:05.498Z,11.56
2018-12-07T07:17:05.283Z,11.56
2018-12-07T07:18:05.290Z,11.56
2018-12-07T07:19:05.328Z,11.56
2018-12-07T07:20:05.543Z,11.56
2018-12-07T07:21:05.030Z,11.50
2018-12-07T07:22:05.200Z,11.56
2018-12-07T07:23:05.472Z,11.56
2018-12-07T07:24:05.483Z,11.56
2018-12-07T07:25:05.607Z,11.56
2018-12-07T07:26:05.665Z,11.56
2018-12-07T07:27:05.474Z,11.56
2018-12-07T07:28:05.359Z,11.56
2018-12-07T07:29:05.100Z,11.56
2018-12-07T07:30:05.360Z,11.56
2018-12-07T07:31:05.576Z,11.56
2018-12-07T07:32:05.529Z,11.56
2018-12-07T07:33:05.842Z,11.56
2018-12-07T07:34:05.427Z,11.56
2018-12-07T07:35:05.922Z,11.56
2018-12-07T07:36:05.450Z,11.56
2018-12-07T07:37:05.556Z,11.56
2018-12-07T07:38:05.428Z,11.56
2018-12-07T07:39:05.816Z,11.56
2018-12-07T07:40:06.080Z,11.56
2018-12-07T07:41:05.446Z,11.56
2018-12-07T07:42:05.019Z,11.56
2018-12-07T07:43:05.718Z,11.56
2018-12-07T07:44:05.704Z,11.56
2018-12-07T07:45:05.855Z,11.56
2018-12-07T07:46:05.276Z,11.56
2018-12-07T07:47:05.446Z,11.56
2018-12-07T07:48:05.053Z,11.56
2018-12-07T07:49:05.296Z,11.56
2018-12-07T07:50:05.749Z,11.56
2018-12-07T07:51:06.176Z,11.56
2018-12-07T07:52:05.425Z,11.56
2018-12-07T07:53:06.008Z,11.56
2018-12-07T07:54:05.098Z,11.56
2018-12-07T07:55:05.525Z,11.56
2018-12-07T07:56:05.990Z,11.56
2018-12-07T07:57:05.288Z,11.56
2018-12-07T07:58:05.346Z,11.56
2018-12-07T07:59:05.450Z,11.56
2018-12-07T08:00:05.812Z,11.56
2018-12-07T08:01:05.449Z,11.56
2018-12-07T08:02:05.995Z,11.56
2018-12-07T08:03:05.314Z,11.56
2018-12-07T08:04:05.273Z,11.56
2018-12-07T08:05:05.666Z,11.56
2018-12-07T08:06:05.220Z,11.56
2018-12-07T08:07:05.097Z,11.56
2018-12-07T08:08:05.260Z,11.56
2018-12-07T08:09:05.367Z,11.56
2018-12-07T08:10:05.336Z,11.56
2018-12-07T08:11:05.622Z,11.56
2018-12-07T08:12:05.711Z,11.56
2018-12-07T08:13:05.133Z,11.56
2018-12-07T08:14:05.169Z,11.56
2018-12-07T08:15:05.362Z,11.56
2018-12-07T08:16:05.981Z,11.56
2018-12-07T08:17:05.687Z,11.56
2018-12-07T08:18:05.762Z,11.56
2018-12-07T08:19:05.996Z,11.56
2018-12-07T08:20:05.838Z,11.56
2018-12-07T08:21:05.802Z,11.56
2018-12-07T08:22:05.851Z,11.56
2018-12-07T08:23:05.309Z,11.56
2018-12-07T08:24:05.183Z,11.56
2018-12-07T08:25:05.391Z,11.56
2018-12-07T08:26:05.354Z,11.56
2018-12-07T08:27:05.292Z,11.56
2018-12-07T08:28:05.824Z,11.56
2018-12-07T08:29:05.940Z,11.56
2018-12-07T08:30:05.283Z,11.62
2018-12-07T08:31:05.932Z,11.62
2018-12-07T08:32:05.531Z,11.62
2018-12-07T08:33:05.348Z,11.62
2018-12-07T08:34:05.526Z,11.62
2018-12-07T08:35:05.040Z,11.62
2018-12-07T08:36:05.750Z,11.62
2018-12-07T08:37:05.851Z,11.62
2018-12-07T08:38:05.351Z,11.69
2018-12-07T08:39:05.526Z,11.69
2018-12-07T08:40:05.905Z,11.69
2018-12-07T08:41:05.361Z,11.69
2018-12-07T08:42:06.832Z,11.69
2018-12-07T08:43:05.555Z,11.69
2018-12-07T08:44:05.761Z,11.69
2018-12-07T08:45:05.909Z,11.62
2018-12-07T08:46:05.101Z,11.69
2018-12-07T08:47:05.534Z,11.69
2018-12-07T08:48:05.673Z,11.69
2018-12-07T08:49:06.108Z,11.69
2018-12-07T08:50:05.122Z,11.69
2018-12-07T08:51:05.181Z,11.69
2018-12-07T08:53:05.942Z,11.69
2018-12-07T08:53:10.871Z,11.69
2018-12-07T08:54:06.009Z,11.69
2018-12-07T08:55:05.482Z,11.69
2018-12-07T08:56:05.619Z,11.69
2018-12-07T08:57:05.061Z,11.69
2018-12-07T08:58:05.231Z,11.69
2018-12-07T08:59:05.700Z,11.69
2018-12-07T09:00:05.787Z,11.75
2018-12-07T09:01:05.208Z,11.69
2018-12-07T09:02:05.381Z,11.69
2018-12-07T09:03:05.707Z,11.69
2018-12-07T09:04:05.957Z,11.69
2018-12-07T09:05:05.461Z,11.69
2018-12-07T09:06:05.640Z,11.75
2018-12-07T09:07:06.086Z,11.69
2018-12-07T09:08:05.634Z,11.69
2018-12-07T09:09:05.289Z,11.69
2018-12-07T09:10:05.802Z,11.69
2018-12-07T09:11:05.763Z,11.69
2018-12-07T09:12:05.311Z,11.69
2018-12-07T09:13:05.386Z,11.69
2018-12-07T09:14:05.655Z,11.69
2018-12-07T09:15:05.558Z,11.69
2018-12-07T09:16:05.894Z,11.75
2018-12-07T09:17:05.927Z,11.75
2018-12-07T09:18:05.562Z,11.75
2018-12-07T09:19:05.528Z,11.75
2018-12-07T09:20:06.034Z,11.75
2018-12-07T09:21:05.701Z,11.75
2018-12-07T09:22:05.715Z,11.75
2018-12-07T09:23:05.225Z,11.75
2018-12-07T09:24:05.901Z,11.75
2018-12-07T09:25:05.699Z,11.75
2018-12-07T09:26:05.337Z,11.75
2018-12-07T09:27:05.691Z,11.75
2018-12-07T09:28:05.803Z,11.75
2018-12-07T09:29:05.378Z,11.75
2018-12-07T09:30:05.740Z,11.75
2018-12-07T09:31:05.881Z,11.75
2018-12-07T09:32:05.158Z,11.75
2018-12-07T09:33:05.618Z,11.75
2018-12-07T09:34:06.119Z,11.75
2018-12-07T09:35:05.394Z,11.75
2018-12-07T09:36:05.480Z,11.75
2018-12-07T09:37:05.220Z,11.75
2018-12-07T09:38:12.916Z,11.75
2018-12-07T09:39:05.212Z,11.75
2018-12-07T09:40:05.425Z,11.75
2018-12-07T09:41:05.388Z,11.75
2018-12-07T09:42:05.484Z,11.75
2018-12-07T09:43:05.147Z,11.81
2018-12-07T09:44:05.700Z,11.81
2018-12-07T09:45:06.032Z,11.81
2018-12-07T09:46:05.633Z,11.81
2018-12-07T09:47:05.855Z,11.81
2018-12-07T09:48:05.308Z,11.81
2018-12-07T09:49:05.658Z,11.81
2018-12-07T09:50:05.805Z,11.81
2018-12-07T09:51:05.403Z,11.81
2018-12-07T09:52:05.639Z,11.81
2018-12-07T09:53:05.900Z,11.81
2018-12-07T09:54:05.185Z,11.81
2018-12-07T09:55:05.475Z,11.81
2018-12-07T09:56:05.575Z,11.81
2018-12-07T09:57:05.550Z,11.81
2018-12-07T09:58:05.486Z,11.81
2018-12-07T09:59:05.545Z,11.81
2018-12-07T10:00:05.170Z,11.81
2018-12-07T10:01:05.552Z,11.81
2018-12-07T10:02:06.046Z,11.81
2018-12-07T10:03:05.651Z,11.81
2018-12-07T10:04:06.051Z,11.88
2018-12-07T10:05:05.636Z,11.88
2018-12-07T10:06:05.148Z,11.88
2018-12-07T10:07:05.558Z,11.88
2018-12-07T10:08:05.502Z,11.88
2018-12-07T10:09:05.673Z,11.88
2018-12-07T10:10:05.418Z,11.88
2018-12-07T10:11:05.566Z,11.88
2018-12-07T10:12:05.870Z,11.88
2018-12-07T10:13:08.044Z,11.88
2018-12-07T10:14:05.639Z,11.88
2018-12-07T10:15:05.879Z,11.88
2018-12-07T10:16:05.492Z,11.94
2018-12-07T10:17:06.111Z,11.94
2018-12-07T10:18:05.562Z,11.94
2018-12-07T10:19:05.848Z,11.94
2018-12-07T10:20:05.397Z,11.94
2018-12-07T10:21:05.518Z,11.94
2018-12-07T10:22:05.244Z,11.94
2018-12-07T10:23:05.186Z,11.94
2018-12-07T10:24:06.177Z,11.94
2018-12-07T10:25:05.428Z,12.00
2018-12-07T10:26:06.104Z,12.00
2018-12-07T10:27:05.507Z,12.00
2018-12-07T10:28:06.088Z,12.00
2018-12-07T10:29:05.481Z,12.00
2018-12-07T10:30:05.681Z,12.00
2018-12-07T10:31:05.264Z,12.00
2018-12-07T10:32:06.022Z,12.06
2018-12-07T10:33:05.891Z,12.00
2018-12-07T10:34:05.433Z,12.06
2018-12-07T10:35:05.978Z,12.06
2018-12-07T10:36:05.104Z,12.06
2018-12-07T10:37:05.276Z,12.06
2018-12-07T10:38:05.264Z,12.06
2018-12-07T10:39:05.904Z,12.06
2018-12-07T10:40:05.980Z,12.06
2018-12-07T10:41:05.166Z,12.06
2018-12-07T10:42:05.753Z,12.06
2018-12-07T10:43:05.839Z,12.06
2018-12-07T10:44:05.023Z,12.06
2018-12-07T10:45:05.567Z,12.06
2018-12-07T10:46:05.691Z,12.12
2018-12-07T10:47:05.104Z,12.12
2018-12-07T10:48:05.191Z,12.06
2018-12-07T10:49:05.193Z,12.12
2018-12-07T10:50:06.410Z,12.12
2018-12-07T10:51:08.062Z,12.12
2018-12-07T10:52:05.657Z,12.06
2018-12-07T10:53:05.155Z,12.06
2018-12-07T10:54:05.354Z,12.12
2018-12-07T10:55:05.379Z,12.12
2018-12-07T10:56:05.499Z,12.12
2018-12-07T10:57:05.072Z,12.12
2018-12-07T10:58:05.266Z,12.12
2018-12-07T10:59:05.318Z,12.12
2018-12-07T11:00:05.902Z,12.06
2018-12-07T11:01:06.474Z,12.06
2018-12-07T11:02:05.822Z,12.06
2018-12-07T11:03:05.229Z,12.06
2018-12-07T11:04:05.815Z,12.06
2018-12-07T11:05:05.491Z,12.06
2018-12-07T11:06:05.655Z,12.00
2018-12-07T11:07:05.954Z,12.00
2018-12-07T11:08:05.333Z,12.00
2018-12-07T11:09:05.885Z,12.00
2018-12-07T11:10:05.071Z,12.00
2018-12-07T11:11:05.472Z,11.94
2018-12-07T11:12:05.662Z,11.94
2018-12-07T11:13:05.151Z,12.00
2018-12-07T11:14:05.541Z,12.00
2018-12-07T11:15:05.781Z,11.94
2018-12-07T11:16:05.489Z,11.94
2018-12-07T11:17:05.632Z,11.94
2018-12-07T11:18:05.799Z,11.94
2018-12-07T11:19:05.225Z,11.94
2018-12-07T11:20:05.298Z,11.88
2018-12-07T11:21:05.473Z,11.88
2018-12-07T11:22:05.616Z,11.88
2018-12-07T11:23:05.946Z,11.88
2018-12-07T11:24:05.168Z,11.88
2018-12-07T11:25:05.204Z,11.81
2018-12-07T11:26:05.794Z,11.81
2018-12-07T11:27:05.872Z,11.81
2018-12-07T11:28:05.299Z,11.81
2018-12-07T11:29:05.646Z,11.75
2018-12-07T11:30:05.038Z,11.81
2018-12-07T11:31:05.248Z,11.81
2018-12-07T11:32:05.301Z,11.75
2018-12-07T11:33:05.387Z,11.75
2018-12-07T11:34:05.450Z,11.75
2018-12-07T11:35:05.947Z,11.75
2018-12-07T11:36:08.168Z,11.75
2018-12-07T11:37:05.681Z,11.75
2018-12-07T11:38:05.925Z,11.69
2018-12-07T11:39:05.043Z,11.69
2018-12-07T11:40:05.221Z,11.69
2018-12-07T11:41:05.538Z,11.69
2018-12-07T11:42:05.161Z,11.69
2018-12-07T11:43:05.230Z,11.69
2018-12-07T11:44:05.872Z,11.69
2018-12-07T11:45:05.180Z,11.69
2018-12-07T11:46:05.374Z,11.69
2018-12-07T11:47:06.044Z,11.62
2018-12-07T11:48:05.421Z,11.69
2018-12-07T11:49:05.552Z,11.69
2018-12-07T11:50:05.792Z,11.69
2018-12-07T11:51:05.233Z,11.62
2018-12-07T11:52:05.578Z,11.62
2018-12-07T11:53:05.932Z,11.69
2018-12-07T11:54:05.809Z,11.62
2018-12-07T11:55:05.268Z,11.69
2018-12-07T11:56:05.414Z,11.69
2018-12-07T11:57:05.446Z,11.69
2018-12-07T11:58:05.574Z,11.69
2018-12-07T11:59:05.756Z,11.62
2018-12-07T12:00:06.871Z,11.69
2018-12-07T12:01:05.210Z,11.69
2018-12-07T12:02:05.748Z,11.62
2018-12-07T12:03:05.530Z,11.69
2018-12-07T12:04:05.023Z,11.69
2018-12-07T12:05:05.531Z,11.62
2018-12-07T12:06:05.919Z,11.62
2018-12-07T12:07:05.262Z,11.69
2018-12-07T12:08:05.462Z,11.69
2018-12-07T12:09:05.601Z,11.62
2018-12-07T12:10:05.835Z,11.62
2018-12-07T12:11:05.819Z,11.62
2018-12-07T12:12:06.954Z,11.69
2018-12-07T12:13:06.084Z,11.62
2018-12-07T12:14:05.535Z,11.62
2018-12-07T12:15:05.368Z,11.62
2018-12-07T12:16:06.197Z,11.62
2018-12-07T12:17:05.770Z,11.69
2018-12-07T12:18:05.921Z,11.69
2018-12-07T12:19:05.285Z,11.69
2018-12-07T12:20:05.635Z,11.69
2018-12-07T12:21:05.684Z,11.69
2018-12-07T12:22:05.769Z,11.62
2018-12-07T12:23:05.925Z,11.62
2018-12-07T12:24:05.356Z,11.62
2018-12-07T12:25:05.551Z,11.62
2018-12-07T12:26:05.542Z,11.62
2018-12-07T12:27:06.828Z,11.69
2018-12-07T12:28:05.106Z,11.62
2018-12-07T12:29:06.180Z,11.62
2018-12-07T12:30:05.339Z,11.62
2018-12-07T12:31:05.137Z,11.62
2018-12-07T12:32:05.831Z,11.62
2018-12-07T12:33:05.280Z,11.69
2018-12-07T12:34:05.696Z,11.69
2018-12-07T12:35:05.765Z,11.69
2018-12-07T12:36:05.987Z,11.69
2018-12-07T12:37:05.419Z,11.62
2018-12-07T12:38:05.600Z,11.69
2018-12-07T12:39:05.206Z,11.69
2018-12-07T12:40:05.846Z,11.69
2018-12-07T12:41:05.058Z,11.69
2018-12-07T12:42:05.786Z,11.75
2018-12-07T12:43:05.617Z,11.75
2018-12-07T12:44:05.277Z,11.75
2018-12-07T12:45:05.423Z,11.75
2018-12-07T12:46:05.779Z,11.75
2018-12-07T12:47:05.859Z,11.75
2018-12-07T12:48:05.283Z,11.75
2018-12-07T12:49:05.256Z,11.75
2018-12-07T12:50:05.276Z,11.75
2018-12-07T12:51:05.328Z,11.75
2018-12-07T12:52:05.764Z,11.75
2018-12-07T12:53:05.934Z,11.75